sensor_id;sensor_type;location;lat;lon;timestamp;temperature;humidity
15172;DHT22;7686;52.184;9.280;2022-12-11T00:00:47;26.10;37.50
15172;DHT22;7686;52.184;9.280;2022-12-11T00:03:15;26.10;37.50
15172;DHT22;7686;52.184;9.280;2022-12-11T00:05:43;26.10;37.50
15172;DHT22;7686;52.184;9.280;2022-12-11T00:08:10;26.10;37.50
15172;DHT22;7686;52.184;9.280;2022-12-11T00:10:37;26.20;37.50
15172;DHT22;7686;52.184;9.280;2022-12-11T00:13:04;26.10;37.50
15172;DHT22;7686;52.184;9.280;2022-12-11T00:15:31;26.10;37.40
15172;DHT22;7686;52.184;9.280;2022-12-11T00:17:57;26.10;37.40
15172;DHT22;7686;52.184;9.280;2022-12-11T00:20:24;26.10;37.40
15172;DHT22;7686;52.184;9.280;2022-12-11T00:22:51;26.10;37.50
15172;DHT22;7686;52.184;9.280;2022-12-11T00:25:17;26.10;37.40
15172;DHT22;7686;52.184;9.280;2022-12-11T00:27:45;26.10;37.40
15172;DHT22;7686;52.184;9.280;2022-12-11T00:30:13;26.10;37.40
15172;DHT22;7686;52.184;9.280;2022-12-11T00:32:40;26.10;37.50
15172;DHT22;7686;52.184;9.280;2022-12-11T00:35:07;26.10;37.50
15172;DHT22;7686;52.184;9.280;2022-12-11T00:37:34;26.10;37.40
15172;DHT22;7686;52.184;9.280;2022-12-11T00:40:01;26.10;37.50
15172;DHT22;7686;52.184;9.280;2022-12-11T00:42:27;26.10;37.40
15172;DHT22;7686;52.184;9.280;2022-12-11T00:44:54;26.10;37.40
15172;DHT22;7686;52.184;9.280;2022-12-11T00:47:21;26.10;37.50
15172;DHT22;7686;52.184;9.280;2022-12-11T00:49:48;26.00;37.30
15172;DHT22;7686;52.184;9.280;2022-12-11T00:52:15;26.10;37.40
15172;DHT22;7686;52.184;9.280;2022-12-11T00:54:43;26.10;37.40
15172;DHT22;7686;52.184;9.280;2022-12-11T00:57:10;26.00;37.30
15172;DHT22;7686;52.184;9.280;2022-12-11T00:59:37;26.00;37.30
15172;DHT22;7686;52.184;9.280;2022-12-11T01:02:03;26.00;37.30
15172;DHT22;7686;52.184;9.280;2022-12-11T01:04:30;26.10;37.40
15172;DHT22;7686;52.184;9.280;2022-12-11T01:06:57;26.00;37.30
15172;DHT22;7686;52.184;9.280;2022-12-11T01:09:23;26.00;37.30
15172;DHT22;7686;52.184;9.280;2022-12-11T01:12:09;26.00;37.30
15172;DHT22;7686;52.184;9.280;2022-12-11T01:14:35;26.00;37.40
15172;DHT22;7686;52.184;9.280;2022-12-11T01:17:02;26.00;37.30
15172;DHT22;7686;52.184;9.280;2022-12-11T01:19:29;26.00;37.20
15172;DHT22;7686;52.184;9.280;2022-12-11T01:21:56;26.00;37.30
15172;DHT22;7686;52.184;9.280;2022-12-11T01:24:22;26.00;37.30
15172;DHT22;7686;52.184;9.280;2022-12-11T01:26:49;26.00;37.30
15172;DHT22;7686;52.184;9.280;2022-12-11T01:29:16;26.00;37.30
15172;DHT22;7686;52.184;9.280;2022-12-11T01:31:42;26.00;37.20
15172;DHT22;7686;52.184;9.280;2022-12-11T01:34:09;26.00;37.30
15172;DHT22;7686;52.184;9.280;2022-12-11T01:36:35;26.00;37.20
15172;DHT22;7686;52.184;9.280;2022-12-11T01:39:02;26.00;37.20
15172;DHT22;7686;52.184;9.280;2022-12-11T01:41:29;26.00;37.20
15172;DHT22;7686;52.184;9.280;2022-12-11T01:45:14;26.10;37.30
15172;DHT22;7686;52.184;9.280;2022-12-11T01:46:54;26.00;37.10
15172;DHT22;7686;52.184;9.280;2022-12-11T01:49:24;26.00;37.20
15172;DHT22;7686;52.184;9.280;2022-12-11T01:52:01;26.00;37.10
15172;DHT22;7686;52.184;9.280;2022-12-11T01:54:29;26.00;37.10
15172;DHT22;7686;52.184;9.280;2022-12-11T01:57:02;26.10;37.30
15172;DHT22;7686;52.184;9.280;2022-12-11T01:59:32;26.00;37.10
15172;DHT22;7686;52.184;9.280;2022-12-11T02:02:16;26.00;37.10
15172;DHT22;7686;52.184;9.280;2022-12-11T02:04:45;26.00;37.10
15172;DHT22;7686;52.184;9.280;2022-12-11T02:07:12;26.00;37.10
15172;DHT22;7686;52.184;9.280;2022-12-11T02:09:40;26.00;37.10
15172;DHT22;7686;52.184;9.280;2022-12-11T02:12:30;26.00;37.20
15172;DHT22;7686;52.184;9.280;2022-12-11T02:18:15;26.00;37.00
15172;DHT22;7686;52.184;9.280;2022-12-11T02:21:52;26.00;37.00
15172;DHT22;7686;52.184;9.280;2022-12-11T02:24:03;26.00;37.10
15172;DHT22;7686;52.184;9.280;2022-12-11T02:27:03;26.00;37.10
15172;DHT22;7686;52.184;9.280;2022-12-11T02:29:52;25.90;37.00
15172;DHT22;7686;52.184;9.280;2022-12-11T02:35:21;25.90;37.00
15172;DHT22;7686;52.184;9.280;2022-12-11T02:37:56;26.00;37.00
15172;DHT22;7686;52.184;9.280;2022-12-11T02:40:29;25.90;37.70
15172;DHT22;7686;52.184;9.280;2022-12-11T02:43:00;25.90;37.00
15172;DHT22;7686;52.184;9.280;2022-12-11T02:45:28;25.90;37.00
15172;DHT22;7686;52.184;9.280;2022-12-11T02:47:56;25.90;37.10
15172;DHT22;7686;52.184;9.280;2022-12-11T02:50:25;25.90;37.00
15172;DHT22;7686;52.184;9.280;2022-12-11T02:52:54;25.90;37.00
15172;DHT22;7686;52.184;9.280;2022-12-11T02:55:22;25.90;37.00
15172;DHT22;7686;52.184;9.280;2022-12-11T02:58:03;25.90;37.00
15172;DHT22;7686;52.184;9.280;2022-12-11T03:00:31;25.90;37.00
15172;DHT22;7686;52.184;9.280;2022-12-11T03:02:57;25.90;37.00
15172;DHT22;7686;52.184;9.280;2022-12-11T03:05:24;25.90;37.00
15172;DHT22;7686;52.184;9.280;2022-12-11T03:07:52;26.00;37.10
15172;DHT22;7686;52.184;9.280;2022-12-11T03:10:19;25.90;37.00
15172;DHT22;7686;52.184;9.280;2022-12-11T03:12:49;25.90;37.00
15172;DHT22;7686;52.184;9.280;2022-12-11T03:15:33;25.90;36.90
15172;DHT22;7686;52.184;9.280;2022-12-11T03:20:44;25.90;36.90
15172;DHT22;7686;52.184;9.280;2022-12-11T03:23:22;25.90;36.90
15172;DHT22;7686;52.184;9.280;2022-12-11T03:25:57;25.90;36.90
15172;DHT22;7686;52.184;9.280;2022-12-11T03:31:26;25.90;36.90
15172;DHT22;7686;52.184;9.280;2022-12-11T03:33:58;25.90;36.90
15172;DHT22;7686;52.184;9.280;2022-12-11T03:36:30;25.90;36.90
15172;DHT22;7686;52.184;9.280;2022-12-11T03:39:02;25.90;36.90
15172;DHT22;7686;52.184;9.280;2022-12-11T03:41:32;25.90;36.90
15172;DHT22;7686;52.184;9.280;2022-12-11T03:43:59;25.90;36.90
15172;DHT22;7686;52.184;9.280;2022-12-11T03:46:30;25.90;36.90
15172;DHT22;7686;52.184;9.280;2022-12-11T03:49:04;25.90;36.90
15172;DHT22;7686;52.184;9.280;2022-12-11T03:51:32;25.90;36.90
15172;DHT22;7686;52.184;9.280;2022-12-11T03:54:00;25.90;36.90
15172;DHT22;7686;52.184;9.280;2022-12-11T03:56:29;26.00;36.90
15172;DHT22;7686;52.184;9.280;2022-12-11T03:58:56;25.90;36.90
15172;DHT22;7686;52.184;9.280;2022-12-11T04:01:23;26.00;36.90
15172;DHT22;7686;52.184;9.280;2022-12-11T04:03:50;25.90;36.90
15172;DHT22;7686;52.184;9.280;2022-12-11T04:06:16;25.90;36.90
15172;DHT22;7686;52.184;9.280;2022-12-11T04:08:43;25.90;36.90
15172;DHT22;7686;52.184;9.280;2022-12-11T04:11:10;25.90;36.90
15172;DHT22;7686;52.184;9.280;2022-12-11T04:13:55;25.90;36.80
15172;DHT22;7686;52.184;9.280;2022-12-11T04:16:40;25.90;36.90
15172;DHT22;7686;52.184;9.280;2022-12-11T04:19:08;25.90;36.90
15172;DHT22;7686;52.184;9.280;2022-12-11T04:21:53;25.90;36.80
15172;DHT22;7686;52.184;9.280;2022-12-11T04:24:39;25.90;36.90
15172;DHT22;7686;52.184;9.280;2022-12-11T04:27:05;25.90;36.90
15172;DHT22;7686;52.184;9.280;2022-12-11T04:29:32;25.90;36.90
15172;DHT22;7686;52.184;9.280;2022-12-11T04:31:59;25.90;36.90
15172;DHT22;7686;52.184;9.280;2022-12-11T04:34:25;25.90;36.80
15172;DHT22;7686;52.184;9.280;2022-12-11T04:36:52;25.90;36.90
15172;DHT22;7686;52.184;9.280;2022-12-11T04:39:18;25.90;36.90
15172;DHT22;7686;52.184;9.280;2022-12-11T04:41:45;25.90;36.90
15172;DHT22;7686;52.184;9.280;2022-12-11T04:44:12;25.90;36.90
15172;DHT22;7686;52.184;9.280;2022-12-11T04:46:38;25.90;36.80
15172;DHT22;7686;52.184;9.280;2022-12-11T04:49:05;25.90;36.80
15172;DHT22;7686;52.184;9.280;2022-12-11T04:51:32;25.90;36.80
15172;DHT22;7686;52.184;9.280;2022-12-11T04:53:58;25.90;36.80
15172;DHT22;7686;52.184;9.280;2022-12-11T04:56:25;25.90;36.80
15172;DHT22;7686;52.184;9.280;2022-12-11T04:58:51;25.90;36.80
15172;DHT22;7686;52.184;9.280;2022-12-11T05:01:20;25.90;36.80
15172;DHT22;7686;52.184;9.280;2022-12-11T05:03:48;25.90;36.80
15172;DHT22;7686;52.184;9.280;2022-12-11T05:06:15;25.90;36.80
15172;DHT22;7686;52.184;9.280;2022-12-11T05:08:42;25.90;36.80
15172;DHT22;7686;52.184;9.280;2022-12-11T05:11:13;25.80;36.70
15172;DHT22;7686;52.184;9.280;2022-12-11T05:13:40;25.80;36.70
15172;DHT22;7686;52.184;9.280;2022-12-11T05:16:09;25.80;36.70
15172;DHT22;7686;52.184;9.280;2022-12-11T05:18:36;25.80;36.70
15172;DHT22;7686;52.184;9.280;2022-12-11T05:21:05;25.80;36.70
15172;DHT22;7686;52.184;9.280;2022-12-11T05:23:32;25.80;36.60
15172;DHT22;7686;52.184;9.280;2022-12-11T05:26:02;25.80;36.60
15172;DHT22;7686;52.184;9.280;2022-12-11T05:28:32;25.80;36.60
15172;DHT22;7686;52.184;9.280;2022-12-11T05:31:02;25.80;36.70
15172;DHT22;7686;52.184;9.280;2022-12-11T05:33:29;25.80;36.60
15172;DHT22;7686;52.184;9.280;2022-12-11T05:35:57;25.80;36.60
15172;DHT22;7686;52.184;9.280;2022-12-11T05:38:23;25.80;36.70
15172;DHT22;7686;52.184;9.280;2022-12-11T05:41:01;25.80;36.70
15172;DHT22;7686;52.184;9.280;2022-12-11T05:43:30;25.80;36.60
15172;DHT22;7686;52.184;9.280;2022-12-11T05:46:05;25.80;36.60
15172;DHT22;7686;52.184;9.280;2022-12-11T05:48:32;25.80;36.60
15172;DHT22;7686;52.184;9.280;2022-12-11T05:51:00;25.90;36.70
15172;DHT22;7686;52.184;9.280;2022-12-11T05:53:27;25.80;36.60
15172;DHT22;7686;52.184;9.280;2022-12-11T05:55:54;25.80;36.70
15172;DHT22;7686;52.184;9.280;2022-12-11T05:58:20;25.80;36.60
15172;DHT22;7686;52.184;9.280;2022-12-11T06:00:47;25.80;36.70
15172;DHT22;7686;52.184;9.280;2022-12-11T06:03:14;25.80;36.70
15172;DHT22;7686;52.184;9.280;2022-12-11T06:05:41;25.90;36.70
15172;DHT22;7686;52.184;9.280;2022-12-11T06:08:08;25.80;36.70
15172;DHT22;7686;52.184;9.280;2022-12-11T06:10:35;25.80;36.70
15172;DHT22;7686;52.184;9.280;2022-12-11T06:13:02;25.80;36.70
15172;DHT22;7686;52.184;9.280;2022-12-11T06:15:28;25.80;36.70
15172;DHT22;7686;52.184;9.280;2022-12-11T06:17:55;25.80;36.70
15172;DHT22;7686;52.184;9.280;2022-12-11T06:20:21;25.80;36.70
15172;DHT22;7686;52.184;9.280;2022-12-11T06:22:48;25.80;36.70
15172;DHT22;7686;52.184;9.280;2022-12-11T06:25:15;25.80;36.70
15172;DHT22;7686;52.184;9.280;2022-12-11T06:27:41;25.80;36.70
15172;DHT22;7686;52.184;9.280;2022-12-11T06:30:09;25.80;36.70
15172;DHT22;7686;52.184;9.280;2022-12-11T06:32:36;25.80;36.70
15172;DHT22;7686;52.184;9.280;2022-12-11T06:35:03;25.80;36.80
15172;DHT22;7686;52.184;9.280;2022-12-11T06:37:29;25.80;36.70
15172;DHT22;7686;52.184;9.280;2022-12-11T06:39:56;25.80;37.50
15172;DHT22;7686;52.184;9.280;2022-12-11T06:42:23;25.80;36.80
15172;DHT22;7686;52.184;9.280;2022-12-11T06:44:49;25.80;36.70
15172;DHT22;7686;52.184;9.280;2022-12-11T06:47:16;25.80;36.70
15172;DHT22;7686;52.184;9.280;2022-12-11T06:49:43;25.80;36.70
15172;DHT22;7686;52.184;9.280;2022-12-11T06:52:09;25.80;36.70
15172;DHT22;7686;52.184;9.280;2022-12-11T06:54:43;25.80;36.70
15172;DHT22;7686;52.184;9.280;2022-12-11T06:57:10;25.80;36.70
15172;DHT22;7686;52.184;9.280;2022-12-11T06:59:37;25.90;36.80
15172;DHT22;7686;52.184;9.280;2022-12-11T07:02:04;25.80;36.70
15172;DHT22;7686;52.184;9.280;2022-12-11T07:04:31;25.90;36.70
15172;DHT22;7686;52.184;9.280;2022-12-11T07:06:57;25.90;36.80
15172;DHT22;7686;52.184;9.280;2022-12-11T07:09:24;26.00;36.80
15172;DHT22;7686;52.184;9.280;2022-12-11T07:11:51;25.90;36.70
15172;DHT22;7686;52.184;9.280;2022-12-11T07:14:19;25.90;36.70
15172;DHT22;7686;52.184;9.280;2022-12-11T07:16:46;25.90;36.70
15172;DHT22;7686;52.184;9.280;2022-12-11T07:19:12;25.90;36.70
15172;DHT22;7686;52.184;9.280;2022-12-11T07:21:39;25.90;36.70
15172;DHT22;7686;52.184;9.280;2022-12-11T07:24:06;26.00;36.80
15172;DHT22;7686;52.184;9.280;2022-12-11T07:26:34;25.90;36.70
15172;DHT22;7686;52.184;9.280;2022-12-11T07:29:00;26.00;36.80
15172;DHT22;7686;52.184;9.280;2022-12-11T07:31:28;26.10;36.90
15172;DHT22;7686;52.184;9.280;2022-12-11T07:33:57;26.00;36.80
15172;DHT22;7686;52.184;9.280;2022-12-11T07:36:25;26.00;36.80
15172;DHT22;7686;52.184;9.280;2022-12-11T07:38:52;26.00;36.80
15172;DHT22;7686;52.184;9.280;2022-12-11T07:41:20;26.00;36.80
15172;DHT22;7686;52.184;9.280;2022-12-11T07:43:47;26.00;36.80
15172;DHT22;7686;52.184;9.280;2022-12-11T07:46:19;26.00;36.70
15172;DHT22;7686;52.184;9.280;2022-12-11T07:48:47;26.00;36.70
15172;DHT22;7686;52.184;9.280;2022-12-11T07:51:19;26.00;36.70
15172;DHT22;7686;52.184;9.280;2022-12-11T07:53:49;26.10;36.80
15172;DHT22;7686;52.184;9.280;2022-12-11T07:56:17;26.00;36.70
15172;DHT22;7686;52.184;9.280;2022-12-11T07:58:45;26.10;36.80
15172;DHT22;7686;52.184;9.280;2022-12-11T08:01:14;26.00;36.70
15172;DHT22;7686;52.184;9.280;2022-12-11T08:03:41;26.00;36.70
15172;DHT22;7686;52.184;9.280;2022-12-11T08:06:09;26.10;36.80
15172;DHT22;7686;52.184;9.280;2022-12-11T08:08:36;26.00;36.70
15172;DHT22;7686;52.184;9.280;2022-12-11T08:11:04;26.00;36.70
15172;DHT22;7686;52.184;9.280;2022-12-11T08:13:32;26.00;36.80
15172;DHT22;7686;52.184;9.280;2022-12-11T08:16:03;26.10;36.80
15172;DHT22;7686;52.184;9.280;2022-12-11T08:18:31;26.00;36.80
15172;DHT22;7686;52.184;9.280;2022-12-11T08:20:58;26.10;36.80
15172;DHT22;7686;52.184;9.280;2022-12-11T08:23:24;26.00;36.70
15172;DHT22;7686;52.184;9.280;2022-12-11T08:25:51;26.00;36.70
15172;DHT22;7686;52.184;9.280;2022-12-11T08:28:17;26.10;36.90
15172;DHT22;7686;52.184;9.280;2022-12-11T08:30:44;26.00;36.70
15172;DHT22;7686;52.184;9.280;2022-12-11T08:33:11;26.00;36.70
15172;DHT22;7686;52.184;9.280;2022-12-11T08:35:38;26.00;36.70
15172;DHT22;7686;52.184;9.280;2022-12-11T08:38:05;26.00;36.80
15172;DHT22;7686;52.184;9.280;2022-12-11T08:40:32;26.00;36.90
15172;DHT22;7686;52.184;9.280;2022-12-11T08:42:58;26.00;36.80
15172;DHT22;7686;52.184;9.280;2022-12-11T08:45:25;26.00;36.90
15172;DHT22;7686;52.184;9.280;2022-12-11T08:47:52;26.10;37.70
15172;DHT22;7686;52.184;9.280;2022-12-11T08:50:19;26.00;37.00
15172;DHT22;7686;52.184;9.280;2022-12-11T08:52:46;26.20;37.20
15172;DHT22;7686;52.184;9.280;2022-12-11T08:55:12;26.00;37.00
15172;DHT22;7686;52.184;9.280;2022-12-11T08:57:39;26.00;37.00
15172;DHT22;7686;52.184;9.280;2022-12-11T09:00:08;26.00;37.00
15172;DHT22;7686;52.184;9.280;2022-12-11T09:02:35;26.00;37.10
15172;DHT22;7686;52.184;9.280;2022-12-11T09:05:01;25.80;37.10
15172;DHT22;7686;52.184;9.280;2022-12-11T09:07:28;26.00;37.20
15172;DHT22;7686;52.184;9.280;2022-12-11T09:09:55;26.10;37.30
15172;DHT22;7686;52.184;9.280;2022-12-11T09:12:21;26.00;37.30
15172;DHT22;7686;52.184;9.280;2022-12-11T09:14:48;26.00;37.30
15172;DHT22;7686;52.184;9.280;2022-12-11T09:17:15;26.10;37.50
15172;DHT22;7686;52.184;9.280;2022-12-11T09:19:41;26.10;37.50
15172;DHT22;7686;52.184;9.280;2022-12-11T09:22:08;26.10;37.50
15172;DHT22;7686;52.184;9.280;2022-12-11T09:24:37;26.10;37.50
15172;DHT22;7686;52.184;9.280;2022-12-11T09:27:04;26.20;37.50
15172;DHT22;7686;52.184;9.280;2022-12-11T09:29:31;26.20;37.50
15172;DHT22;7686;52.184;9.280;2022-12-11T09:31:58;26.20;37.40
15172;DHT22;7686;52.184;9.280;2022-12-11T09:34:25;26.30;37.40
15172;DHT22;7686;52.184;9.280;2022-12-11T09:36:55;26.30;37.40
15172;DHT22;7686;52.184;9.280;2022-12-11T09:39:21;26.30;37.30
15172;DHT22;7686;52.184;9.280;2022-12-11T09:41:56;26.40;37.30
15172;DHT22;7686;52.184;9.280;2022-12-11T09:44:31;26.40;37.20
15172;DHT22;7686;52.184;9.280;2022-12-11T09:47:00;26.50;37.30
15172;DHT22;7686;52.184;9.280;2022-12-11T09:49:32;26.60;37.40
15172;DHT22;7686;52.184;9.280;2022-12-11T09:52:24;26.60;37.30
15172;DHT22;7686;52.184;9.280;2022-12-11T09:54:58;26.70;37.20
15172;DHT22;7686;52.184;9.280;2022-12-11T09:57:45;26.70;37.10
15172;DHT22;7686;52.184;9.280;2022-12-11T10:03:02;26.70;36.90
15172;DHT22;7686;52.184;9.280;2022-12-11T10:08:09;26.80;36.90
15172;DHT22;7686;52.184;9.280;2022-12-11T10:10:47;26.90;36.90
15172;DHT22;7686;52.184;9.280;2022-12-11T10:16:03;26.90;36.70
15172;DHT22;7686;52.184;9.280;2022-12-11T10:18:33;27.00;36.70
15172;DHT22;7686;52.184;9.280;2022-12-11T10:21:01;27.00;36.80
15172;DHT22;7686;52.184;9.280;2022-12-11T10:23:39;27.00;36.60
15172;DHT22;7686;52.184;9.280;2022-12-11T10:26:17;27.00;36.60
15172;DHT22;7686;52.184;9.280;2022-12-11T10:28:45;27.00;36.50
15172;DHT22;7686;52.184;9.280;2022-12-11T10:31:17;27.00;36.60
15172;DHT22;7686;52.184;9.280;2022-12-11T10:36:36;26.90;36.40
15172;DHT22;7686;52.184;9.280;2022-12-11T10:39:13;27.00;36.50
15172;DHT22;7686;52.184;9.280;2022-12-11T10:41:45;27.10;36.50
15172;DHT22;7686;52.184;9.280;2022-12-11T10:47:10;27.10;36.50
15172;DHT22;7686;52.184;9.280;2022-12-11T10:49:36;27.10;36.50
15172;DHT22;7686;52.184;9.280;2022-12-11T10:52:19;27.10;36.50
15172;DHT22;7686;52.184;9.280;2022-12-11T10:55:07;27.10;36.40
15172;DHT22;7686;52.184;9.280;2022-12-11T10:57:43;27.10;36.40
15172;DHT22;7686;52.184;9.280;2022-12-11T11:00:38;27.10;36.40
15172;DHT22;7686;52.184;9.280;2022-12-11T11:03:24;27.10;36.30
15172;DHT22;7686;52.184;9.280;2022-12-11T11:08:37;27.00;36.30
15172;DHT22;7686;52.184;9.280;2022-12-11T11:11:05;27.00;36.30
15172;DHT22;7686;52.184;9.280;2022-12-11T11:13:31;27.00;36.30
15172;DHT22;7686;52.184;9.280;2022-12-11T11:16:11;27.10;36.40
15172;DHT22;7686;52.184;9.280;2022-12-11T11:18:40;27.00;36.30
15172;DHT22;7686;52.184;9.280;2022-12-11T11:21:16;27.00;36.30
15172;DHT22;7686;52.184;9.280;2022-12-11T11:23:43;26.90;36.40
15172;DHT22;7686;52.184;9.280;2022-12-11T11:26:18;26.90;36.40
15172;DHT22;7686;52.184;9.280;2022-12-11T11:28:54;26.90;36.40
15172;DHT22;7686;52.184;9.280;2022-12-11T11:31:33;26.90;36.30
15172;DHT22;7686;52.184;9.280;2022-12-11T11:34:07;26.80;36.90
15172;DHT22;7686;52.184;9.280;2022-12-11T11:36:36;26.90;36.30
15172;DHT22;7686;52.184;9.280;2022-12-11T11:39:19;26.90;36.40
15172;DHT22;7686;52.184;9.280;2022-12-11T11:41:59;26.90;36.30
15172;DHT22;7686;52.184;9.280;2022-12-11T11:44:32;26.90;36.40
15172;DHT22;7686;52.184;9.280;2022-12-11T11:47:18;26.90;36.30
15172;DHT22;7686;52.184;9.280;2022-12-11T11:49:49;26.90;36.30
15172;DHT22;7686;52.184;9.280;2022-12-11T11:55:07;26.90;36.20
15172;DHT22;7686;52.184;9.280;2022-12-11T11:58:01;27.00;36.20
15172;DHT22;7686;52.184;9.280;2022-12-11T12:00:29;26.90;36.20
15172;DHT22;7686;52.184;9.280;2022-12-11T12:03:22;27.00;36.30
15172;DHT22;7686;52.184;9.280;2022-12-11T12:11:31;27.10;36.20
15172;DHT22;7686;52.184;9.280;2022-12-11T12:14:23;27.10;36.10
15172;DHT22;7686;52.184;9.280;2022-12-11T12:25:48;27.20;36.00
15172;DHT22;7686;52.184;9.280;2022-12-11T12:28:45;27.20;35.90
15172;DHT22;7686;52.184;9.280;2022-12-11T12:34:05;27.20;35.90
15172;DHT22;7686;52.184;9.280;2022-12-11T12:37:00;27.20;35.80
15172;DHT22;7686;52.184;9.280;2022-12-11T12:44:58;27.30;35.80
15172;DHT22;7686;52.184;9.280;2022-12-11T12:47:31;27.40;35.80
15172;DHT22;7686;52.184;9.280;2022-12-11T12:49:58;27.40;35.80
15172;DHT22;7686;52.184;9.280;2022-12-11T12:52:34;27.30;35.70
15172;DHT22;7686;52.184;9.280;2022-12-11T12:55:23;27.40;35.70
15172;DHT22;7686;52.184;9.280;2022-12-11T12:57:53;27.40;35.70
15172;DHT22;7686;52.184;9.280;2022-12-11T13:03:16;27.40;35.60
15172;DHT22;7686;52.184;9.280;2022-12-11T13:06:03;27.50;35.50
15172;DHT22;7686;52.184;9.280;2022-12-11T13:08:45;27.50;35.50
15172;DHT22;7686;52.184;9.280;2022-12-11T13:11:15;27.50;35.50
15172;DHT22;7686;52.184;9.280;2022-12-11T13:14:04;27.50;35.60
15172;DHT22;7686;52.184;9.280;2022-12-11T13:16:37;27.50;35.60
15172;DHT22;7686;52.184;9.280;2022-12-11T13:22:21;27.60;35.50
15172;DHT22;7686;52.184;9.280;2022-12-11T13:27:38;27.60;35.40
15172;DHT22;7686;52.184;9.280;2022-12-11T13:32:56;27.60;35.40
15172;DHT22;7686;52.184;9.280;2022-12-11T13:35:24;27.60;35.30
15172;DHT22;7686;52.184;9.280;2022-12-11T13:37:51;27.60;35.30
15172;DHT22;7686;52.184;9.280;2022-12-11T13:40:27;27.60;34.70
15172;DHT22;7686;52.184;9.280;2022-12-11T13:42:58;27.60;34.20
15172;DHT22;7686;52.184;9.280;2022-12-11T13:45:42;27.60;34.40
15172;DHT22;7686;52.184;9.280;2022-12-11T13:51:30;27.60;34.20
15172;DHT22;7686;52.184;9.280;2022-12-11T13:54:10;27.60;34.20
15172;DHT22;7686;52.184;9.280;2022-12-11T13:57:19;27.60;33.30
15172;DHT22;7686;52.184;9.280;2022-12-11T13:59:52;27.60;33.10
15172;DHT22;7686;52.184;9.280;2022-12-11T14:02:32;27.50;32.80
15172;DHT22;7686;52.184;9.280;2022-12-11T14:05:02;27.50;32.70
15172;DHT22;7686;52.184;9.280;2022-12-11T14:07:31;27.50;32.80
15172;DHT22;7686;52.184;9.280;2022-12-11T14:10:06;27.50;32.80
15172;DHT22;7686;52.184;9.280;2022-12-11T14:12:35;27.40;32.70
15172;DHT22;7686;52.184;9.280;2022-12-11T14:15:03;27.40;33.20
15172;DHT22;7686;52.184;9.280;2022-12-11T14:17:33;27.30;33.10
15172;DHT22;7686;52.184;9.280;2022-12-11T14:20:03;27.40;33.30
15172;DHT22;7686;52.184;9.280;2022-12-11T14:22:33;27.30;33.30
15172;DHT22;7686;52.184;9.280;2022-12-11T14:25:01;27.30;33.50
15172;DHT22;7686;52.184;9.280;2022-12-11T14:27:32;27.30;33.40
15172;DHT22;7686;52.184;9.280;2022-12-11T14:30:09;27.30;33.60
15172;DHT22;7686;52.184;9.280;2022-12-11T14:32:41;27.30;33.50
15172;DHT22;7686;52.184;9.280;2022-12-11T14:35:25;27.30;33.50
15172;DHT22;7686;52.184;9.280;2022-12-11T14:37:53;27.30;33.60
15172;DHT22;7686;52.184;9.280;2022-12-11T14:40:24;27.30;33.80
15172;DHT22;7686;52.184;9.280;2022-12-11T14:42:58;27.30;33.70
15172;DHT22;7686;52.184;9.280;2022-12-11T14:45:35;27.30;33.70
15172;DHT22;7686;52.184;9.280;2022-12-11T14:48:17;27.30;33.80
15172;DHT22;7686;52.184;9.280;2022-12-11T14:50:52;27.30;33.90
15172;DHT22;7686;52.184;9.280;2022-12-11T14:53:26;27.30;33.90
15172;DHT22;7686;52.184;9.280;2022-12-11T14:55:57;27.40;33.90
15172;DHT22;7686;52.184;9.280;2022-12-11T14:58:26;27.40;33.90
15172;DHT22;7686;52.184;9.280;2022-12-11T15:01:05;27.40;34.00
15172;DHT22;7686;52.184;9.280;2022-12-11T15:03:37;27.40;33.90
15172;DHT22;7686;52.184;9.280;2022-12-11T15:06:28;27.30;33.90
15172;DHT22;7686;52.184;9.280;2022-12-11T15:08:55;27.40;33.90
15172;DHT22;7686;52.184;9.280;2022-12-11T15:11:23;27.50;34.20
15172;DHT22;7686;52.184;9.280;2022-12-11T15:13:56;27.40;34.70
15172;DHT22;7686;52.184;9.280;2022-12-11T15:16:26;27.50;34.00
15172;DHT22;7686;52.184;9.280;2022-12-11T15:18:54;27.50;34.10
15172;DHT22;7686;52.184;9.280;2022-12-11T15:21:32;27.50;34.20
15172;DHT22;7686;52.184;9.280;2022-12-11T15:24:02;27.50;34.10
15172;DHT22;7686;52.184;9.280;2022-12-11T15:29:21;27.40;34.00
15172;DHT22;7686;52.184;9.280;2022-12-11T15:32:15;27.40;34.10
15172;DHT22;7686;52.184;9.280;2022-12-11T15:34:52;27.50;34.20
15172;DHT22;7686;52.184;9.280;2022-12-11T15:39:53;27.40;34.40
15172;DHT22;7686;52.184;9.280;2022-12-11T15:42:30;27.40;34.50
15172;DHT22;7686;52.184;9.280;2022-12-11T15:44:58;27.40;34.60
15172;DHT22;7686;52.184;9.280;2022-12-11T15:47:27;27.40;34.60
15172;DHT22;7686;52.184;9.280;2022-12-11T15:50:06;27.40;34.60
15172;DHT22;7686;52.184;9.280;2022-12-11T15:52:37;27.50;35.40
15172;DHT22;7686;52.184;9.280;2022-12-11T15:55:04;27.50;34.60
15172;DHT22;7686;52.184;9.280;2022-12-11T15:57:31;27.50;34.60
15172;DHT22;7686;52.184;9.280;2022-12-11T15:59:57;27.60;34.70
15172;DHT22;7686;52.184;9.280;2022-12-11T16:02:24;27.50;34.60
15172;DHT22;7686;52.184;9.280;2022-12-11T16:04:53;27.60;34.60
15172;DHT22;7686;52.184;9.280;2022-12-11T16:07:22;27.60;34.60
15172;DHT22;7686;52.184;9.280;2022-12-11T16:09:51;27.60;34.50
15172;DHT22;7686;52.184;9.280;2022-12-11T16:12:18;27.70;34.50
15172;DHT22;7686;52.184;9.280;2022-12-11T16:14:46;27.70;34.40
15172;DHT22;7686;52.184;9.280;2022-12-11T16:17:14;27.70;34.30
15172;DHT22;7686;52.184;9.280;2022-12-11T16:19:42;27.70;34.30
15172;DHT22;7686;52.184;9.280;2022-12-11T16:22:10;27.70;34.20
15172;DHT22;7686;52.184;9.280;2022-12-11T16:24:37;27.70;34.20
15172;DHT22;7686;52.184;9.280;2022-12-11T16:27:04;27.80;34.20
15172;DHT22;7686;52.184;9.280;2022-12-11T16:29:36;27.70;34.10
15172;DHT22;7686;52.184;9.280;2022-12-11T16:32:04;27.80;34.10
15172;DHT22;7686;52.184;9.280;2022-12-11T16:34:33;27.80;34.20
15172;DHT22;7686;52.184;9.280;2022-12-11T16:37:00;27.80;34.20
15172;DHT22;7686;52.184;9.280;2022-12-11T16:39:27;27.80;34.20
15172;DHT22;7686;52.184;9.280;2022-12-11T16:41:54;27.80;34.30
15172;DHT22;7686;52.184;9.280;2022-12-11T16:44:23;27.80;34.40
15172;DHT22;7686;52.184;9.280;2022-12-11T16:46:50;27.70;34.30
15172;DHT22;7686;52.184;9.280;2022-12-11T16:49:17;27.70;34.40
15172;DHT22;7686;52.184;9.280;2022-12-11T16:51:45;27.80;34.50
15172;DHT22;7686;52.184;9.280;2022-12-11T16:54:12;27.80;34.60
15172;DHT22;7686;52.184;9.280;2022-12-11T16:56:39;27.70;34.50
15172;DHT22;7686;52.184;9.280;2022-12-11T16:59:05;27.70;34.50
15172;DHT22;7686;52.184;9.280;2022-12-11T17:01:33;27.70;34.50
15172;DHT22;7686;52.184;9.280;2022-12-11T17:04:00;27.70;34.60
15172;DHT22;7686;52.184;9.280;2022-12-11T17:06:27;27.70;34.50
15172;DHT22;7686;52.184;9.280;2022-12-11T17:08:54;27.70;34.60
15172;DHT22;7686;52.184;9.280;2022-12-11T17:11:22;27.70;34.60
15172;DHT22;7686;52.184;9.280;2022-12-11T17:13:54;27.60;34.60
15172;DHT22;7686;52.184;9.280;2022-12-11T17:16:22;27.60;34.50
15172;DHT22;7686;52.184;9.280;2022-12-11T17:18:52;27.60;34.50
15172;DHT22;7686;52.184;9.280;2022-12-11T17:21:20;27.60;34.50